Time;durP1;ratioP1;P1;durP2;ratioP2;P2;SDS_P1;SDS_P2;PMS_P1;PMS_P2;Temp;Humidity;BMP_temperature;BMP_pressure;BME280_temperature;BME280_humidity;BME280_pressure;Samples;Min_cycle;Max_cycle;Signal;HPM_P1;HPM_P2
2022/03/17 00:00:16;;;;;;;38.37;28.13;;;;;;;6.28;95.83;96807.19;5066358;28;20041;-86
2022/03/17 00:02:42;;;;;;;34.53;24.90;;;;;;;6.32;94.50;96814.66;5034323;28;20047;-85
2022/03/17 00:05:14;;;;;;;36.07;26.13;;;;;;;6.27;95.28;96811.59;5039131;28;20033;-85
2022/03/17 00:07:44;;;;;;;35.47;27.20;;;;;;;6.21;94.86;96819.06;5030683;28;20048;-85
2022/03/17 00:10:14;;;;;;;32.80;26.57;;;;;;;6.18;95.58;96804.47;5045848;28;20563;-85
2022/03/17 00:12:42;;;;;;;36.03;27.83;;;;;;;6.12;96.38;96805.75;5030702;28;20521;-85
2022/03/17 00:15:08;;;;;;;36.20;26.53;;;;;;;6.20;95.42;96797.31;5039165;28;20033;-85
2022/03/17 00:17:37;;;;;;;34.70;26.80;;;;;;;6.17;95.87;96801.94;5022322;28;20036;-85
2022/03/17 00:20:06;;;;;;;34.80;26.30;;;;;;;6.12;95.95;96789.25;5033695;28;20043;-85
2022/03/17 00:22:32;;;;;;;33.10;25.33;;;;;;;6.18;94.37;96786.19;5044772;28;20021;-85
2022/03/17 00:24:58;;;;;;;35.23;26.03;;;;;;;6.09;95.57;96795.53;5024874;28;20167;-86
2022/03/17 00:27:24;;;;;;;36.57;26.77;;;;;;;6.09;95.91;96789.50;5047313;28;20127;-85
2022/03/17 00:29:50;;;;;;;36.73;26.37;;;;;;;6.10;95.27;96810.28;5057449;28;20132;-85
2022/03/17 00:32:17;;;;;;;35.40;26.30;;;;;;;6.11;95.20;96800.66;5036986;28;20668;-85
2022/03/17 00:37:27;;;;;;;35.83;26.47;;;;;;;5.98;96.16;96790.31;5054393;28;20033;-86
2022/03/17 00:39:54;;;;;;;32.17;25.27;;;;;;;5.96;96.03;96780.94;5052279;28;20025;-85
2022/03/17 00:42:20;;;;;;;39.13;27.57;;;;;;;5.97;94.77;96775.63;5051880;28;20082;-85
2022/03/17 00:44:47;;;;;;;36.27;26.70;;;;;;;5.95;95.46;96781.91;5041041;28;20581;-85
2022/03/17 00:47:14;;;;;;;34.20;26.00;;;;;;;5.94;95.57;96770.63;5047398;28;20506;-84
2022/03/17 00:49:41;;;;;;;33.67;25.77;;;;;;;5.91;95.37;96774.25;5064386;28;20068;-85
2022/03/17 00:52:10;;;;;;;36.23;26.57;;;;;;;5.86;95.41;96765.94;5038755;28;20075;-85
2022/03/17 00:54:36;;;;;;;36.40;27.20;;;;;;;5.83;95.68;96767.94;5025256;28;20064;-85
2022/03/17 00:57:03;;;;;;;35.77;25.93;;;;;;;5.82;95.28;96761.91;5030549;28;20056;-85
2022/03/17 01:00:05;;;;;;;35.93;26.97;;;;;;;5.84;94.75;96770.47;5055502;28;20123;-85
2022/03/17 01:02:33;;;;;;;33.77;24.60;;;;;;;5.85;95.03;96777.34;5035841;28;20045;-85
2022/03/17 01:05:02;;;;;;;33.50;25.07;;;;;;;5.86;94.57;96772.94;5026166;28;20116;-85
2022/03/17 01:07:47;;;;;;;34.40;25.30;;;;;;;5.80;95.24;96769.03;5062211;28;20044;-85
2022/03/17 01:10:15;;;;;;;35.65;26.63;;;;;;;5.77;94.87;96752.75;5059462;28;20036;-84
2022/03/17 01:12:46;;;;;;;37.67;26.20;;;;;;;5.84;93.70;96754.81;5021761;28;20139;-85
2022/03/17 01:15:17;;;;;;;33.87;24.87;;;;;;;5.80;93.51;96761.22;5042440;28;20048;-85
2022/03/17 01:17:43;;;;;;;33.97;24.27;;;;;;;5.83;93.30;96747.91;5037865;28;20109;-85
2022/03/17 01:20:11;;;;;;;35.73;26.07;;;;;;;5.84;92.39;96739.13;5054221;28;20387;-85
2022/03/17 01:22:44;;;;;;;30.07;24.00;;;;;;;5.77;92.75;96750.16;5065596;28;20045;-85
2022/03/17 01:25:10;;;;;;;36.95;25.67;;;;;;;5.73;93.79;96740.91;5034840;28;20037;-85
2022/03/17 01:27:36;;;;;;;35.00;23.77;;;;;;;5.76;93.19;96743.28;5033452;28;20048;-85
2022/03/17 01:30:07;;;;;;;31.53;24.37;;;;;;;5.71;92.67;96745.41;5038500;28;20439;-85
2022/03/17 01:32:34;;;;;;;32.17;22.50;;;;;;;5.79;92.17;96732.59;5020969;28;20052;-85
2022/03/17 01:35:01;;;;;;;33.07;24.20;;;;;;;5.84;90.88;96740.94;5027622;28;20548;-85
2022/03/17 01:37:27;;;;;;;33.43;24.53;;;;;;;5.85;89.57;96740.78;5024409;28;20040;-86
2022/03/17 01:39:59;;;;;;;30.97;21.97;;;;;;;5.94;88.67;96751.53;5053948;28;20036;-85
2022/03/17 01:42:25;;;;;;;32.90;23.30;;;;;;;5.96;88.17;96749.59;5047663;28;20063;-85
2022/03/17 01:44:52;;;;;;;31.00;22.57;;;;;;;5.91;89.13;96748.16;5047957;28;20052;-85
2022/03/17 01:47:45;;;;;;;32.37;21.63;;;;;;;6.02;86.87;96751.75;5048768;28;20043;-85
2022/03/17 01:50:22;;;;;;;32.67;23.40;;;;;;;5.90;88.87;96754.34;5051984;28;20059;-85
2022/03/17 01:52:52;;;;;;;36.17;25.27;;;;;;;5.86;89.43;96750.28;5042685;28;20044;-85
2022/03/17 01:55:22;;;;;;;32.43;23.20;;;;;;;5.76;90.70;96754.53;5037403;28;20063;-84
2022/03/17 01:57:50;;;;;;;33.90;24.87;;;;;;;5.75;91.41;96754.66;5029341;28;20161;-85
2022/03/17 02:00:19;;;;;;;34.73;25.87;;;;;;;5.73;92.39;96753.94;5027961;28;20036;-85
2022/03/17 02:02:49;;;;;;;34.57;23.53;;;;;;;5.73;91.78;96754.75;5044093;28;20020;-84
2022/03/17 02:05:16;;;;;;;38.03;25.63;;;;;;;5.65;92.75;96757.13;5028704;28;20032;-85
2022/03/17 02:07:52;;;;;;;33.30;24.90;;;;;;;5.63;93.59;96756.41;5070560;28;20027;-84
2022/03/17 02:10:20;;;;;;;36.17;26.43;;;;;;;5.57;93.53;96762.94;5053030;28;20111;-85
2022/03/17 02:15:37;;;;;;;33.90;22.57;;;;;;;5.59;93.98;96768.03;5057368;28;20033;-85
2022/03/17 02:18:08;;;;;;;37.63;25.77;;;;;;;5.55;94.69;96769.22;5033081;28;20398;-85
2022/03/17 02:20:37;;;;;;;34.00;24.63;;;;;;;5.54;95.75;96772.78;5042215;28;20036;-85
2022/03/17 02:25:52;;;;;;;34.37;24.77;;;;;;;5.53;95.43;96760.66;5047498;28;20032;-85
2022/03/17 02:28:53;;;;;;;34.10;26.27;;;;;;;5.48;95.93;96776.66;5035923;28;20036;-85
2022/03/17 02:31:18;;;;;;;34.47;25.50;;;;;;;5.53;95.91;96771.91;5032770;28;20039;-85
2022/03/17 02:33:44;;;;;;;34.30;25.87;;;;;;;5.54;95.74;96770.16;5033393;28;20033;-85
2022/03/17 02:36:10;;;;;;;35.77;24.77;;;;;;;5.53;96.06;96776.31;5025856;28;20025;-85
2022/03/17 02:38:36;;;;;;;37.03;27.03;;;;;;;5.49;96.82;96780.94;5046382;28;20052;-85
2022/03/17 02:41:02;;;;;;;34.83;25.50;;;;;;;5.48;96.61;96784.50;5012938;28;20052;-85
2022/03/17 02:43:27;;;;;;;35.67;26.90;;;;;;;5.47;97.21;96788.06;5048627;28;20483;-85
2022/03/17 02:45:53;;;;;;;39.87;27.17;;;;;;;5.43;97.49;96790.06;5033314;28;20115;-85
2022/03/17 02:48:20;;;;;;;38.17;26.67;;;;;;;5.44;97.86;96785.69;5030027;28;20119;-84
2022/03/17 02:50:47;;;;;;;36.93;26.63;;;;;;;5.35;99.30;96788.97;5034949;28;20071;-85
2022/03/17 02:53:15;;;;;;;37.33;26.13;;;;;;;5.37;99.57;96793.13;5026018;28;20037;-85
2022/03/17 02:55:44;;;;;;;37.83;26.77;;;;;;;5.38;99.14;96789.56;5046796;28;20040;-85
2022/03/17 02:58:11;;;;;;;35.20;25.60;;;;;;;5.34;99.01;96793.34;5053972;28;20025;-85
2022/03/17 03:00:38;;;;;;;38.40;27.23;;;;;;;5.30;100.00;96793.66;5051213;28;20029;-85
2022/03/17 03:03:05;;;;;;;36.70;27.53;;;;;;;5.27;100.00;96802.56;5026839;28;20392;-85
2022/03/17 03:05:31;;;;;;;37.33;27.40;;;;;;;5.32;100.00;96797.81;5035862;28;20380;-85
2022/03/17 03:08:05;;;;;;;36.57;26.03;;;;;;;5.40;99.51;96795.50;5026533;28;20044;-84
2022/03/17 03:10:31;;;;;;;36.93;26.50;;;;;;;5.34;100.00;96808.16;5052284;28;20104;-85
2022/03/17 03:12:58;;;;;;;36.53;26.07;;;;;;;5.41;99.85;96807.59;5046718;28;20087;-85
2022/03/17 03:15:24;;;;;;;38.30;26.87;;;;;;;5.29;100.00;96803.28;5032039;28;20025;-85
2022/03/17 03:17:55;;;;;;;35.23;27.03;;;;;;;5.27;100.00;96797.34;5056226;28;20044;-84
2022/03/17 03:20:20;;;;;;;36.43;26.07;;;;;;;5.27;100.00;96789.53;5040885;28;20093;-84
2022/03/17 03:22:48;;;;;;;36.13;27.90;;;;;;;5.24;100.00;96804.56;5043808;28;20527;-85
2022/03/17 03:25:16;;;;;;;40.03;28.13;;;;;;;5.23;100.00;96803.75;5050278;28;20032;-85
2022/03/17 03:27:43;;;;;;;38.57;28.40;;;;;;;5.28;100.00;96808.59;5037854;28;20057;-85
2022/03/17 03:30:14;;;;;;;39.00;27.47;;;;;;;5.27;100.00;96807.78;5029980;28;20039;-85
2022/03/17 03:32:44;;;;;;;36.60;27.97;;;;;;;5.22;100.00;96802.06;5040904;28;20033;-85
2022/03/17 03:37:56;;;;;;;37.17;25.93;;;;;;;5.18;100.00;96811.06;5046724;28;20571;-84
2022/03/17 03:40:22;;;;;;;38.57;26.83;;;;;;;5.17;100.00;96827.66;5053544;28;20127;-85
2022/03/17 03:42:48;;;;;;;38.40;27.37;;;;;;;5.24;100.00;96821.03;5035304;28;20316;-85
2022/03/17 03:45:17;;;;;;;39.10;28.77;;;;;;;5.21;100.00;96821.25;5037125;28;20157;-86
2022/03/17 03:47:49;;;;;;;37.67;28.00;;;;;;;5.23;100.00;96819.38;5029517;28;20442;-85
2022/03/17 03:50:17;;;;;;;37.67;27.33;;;;;;;5.23;100.00;96831.56;5026191;28;20059;-85
2022/03/17 03:53:04;;;;;;;37.53;27.87;;;;;;;5.21;100.00;96829.09;5055079;28;20029;-85
2022/03/17 03:55:37;;;;;;;38.47;26.87;;;;;;;5.36;100.00;96829.72;5033444;28;20029;-85
2022/03/17 03:58:03;;;;;;;41.40;29.23;;;;;;;5.29;100.00;96834.56;5044740;28;20036;-86
2022/03/17 04:03:22;;;;;;;38.57;28.20;;;;;;;5.31;100.00;96837.06;5068179;28;20119;-86
2022/03/17 04:05:51;;;;;;;36.60;27.47;;;;;;;5.24;100.00;96834.09;5030318;28;20037;-85
2022/03/17 04:08:17;;;;;;;37.90;26.83;;;;;;;5.26;100.00;96831.34;5062948;28;20040;-85
2022/03/17 04:10:43;;;;;;;41.27;28.87;;;;;;;5.26;100.00;96831.34;5033522;28;20031;-86
2022/03/17 04:13:10;;;;;;;37.50;28.37;;;;;;;5.26;100.00;96826.97;5028475;28;20043;-85
2022/03/17 04:15:41;;;;;;;39.00;27.73;;;;;;;5.18;100.00;96824.91;5047608;28;20060;-85
2022/03/17 04:18:07;;;;;;;38.37;27.63;;;;;;;5.21;100.00;96834.31;5033554;28;20067;-85
2022/03/17 04:20:34;;;;;;;38.47;26.97;;;;;;;5.23;100.00;96832.44;5054732;28;20033;-85
2022/03/17 04:23:01;;;;;;;36.43;27.17;;;;;;;5.21;100.00;96834.31;5043189;28;20474;-84
2022/03/17 04:25:28;;;;;;;38.43;27.03;;;;;;;5.24;100.00;96834.09;5028912;28;20056;-86
2022/03/17 04:27:56;;;;;;;38.27;27.77;;;;;;;5.21;100.00;96829.09;5061307;28;20029;-86
2022/03/17 04:30:21;;;;;;;38.53;27.67;;;;;;;5.19;100.00;96825.75;5022085;28;20088;-86
2022/03/17 04:33:26;;;;;;;42.10;29.13;;;;;;;5.25;100.00;96829.69;5029763;28;20436;-85
2022/03/17 04:35:55;;;;;;;37.80;27.13;;;;;;;5.25;100.00;96830.53;5047706;28;20044;-85
2022/03/17 04:38:25;;;;;;;36.40;27.17;;;;;;;5.27;100.00;96823.44;5053035;28;20052;-85
2022/03/17 04:40:55;;;;;;;38.87;28.30;;;;;;;5.29;100.00;96824.13;5064661;28;20081;-85
2022/03/17 04:43:21;;;;;;;41.00;29.03;;;;;;;5.26;100.00;96837.38;5050211;28;20040;-86
2022/03/17 04:45:47;;;;;;;40.03;27.17;;;;;;;5.30;100.00;96828.44;5035430;28;20043;-85
2022/03/17 04:48:14;;;;;;;37.50;27.57;;;;;;;5.29;100.00;96831.94;5034859;28;20410;-85
2022/03/17 04:50:43;;;;;;;39.83;28.80;;;;;;;5.27;100.00;96844.28;5047016;28;20052;-85
2022/03/17 04:53:27;;;;;;;42.07;29.03;;;;;;;5.29;100.00;96839.78;5036711;28;20422;-84
2022/03/17 04:56:19;;;;;;;36.90;26.77;;;;;;;5.28;100.00;96829.47;5023341;28;20045;-86
2022/03/17 04:58:48;;;;;;;37.30;26.70;;;;;;;5.28;100.00;96845.94;5045940;28;20028;-86
2022/03/17 05:01:16;;;;;;;41.87;28.87;;;;;;;5.26;100.00;96842.59;5026390;28;20034;-85
2022/03/17 05:03:42;;;;;;;35.33;26.83;;;;;;;5.30;100.00;96853.66;5048772;28;20033;-85
2022/03/17 05:06:12;;;;;;;37.60;27.27;;;;;;;5.29;100.00;96854.59;5042788;28;20028;-88
2022/03/17 05:08:38;;;;;;;38.07;28.00;;;;;;;5.34;100.00;96855.94;5046272;28;20070;-89
2022/03/17 05:11:04;;;;;;;41.13;28.87;;;;;;;5.33;100.00;96862.09;5041610;28;20039;-88
2022/03/17 05:13:39;;;;;;;36.07;26.83;;;;;;;5.29;100.00;96865.84;5053575;28;20037;-89
2022/03/17 05:16:05;;;;;;;38.90;27.50;;;;;;;5.30;100.00;96864.94;5028957;28;20403;-87
2022/03/17 05:18:32;;;;;;;38.10;28.30;;;;;;;5.35;100.00;96867.19;5046209;28;20032;-88
2022/03/17 05:21:01;;;;;;;41.53;28.77;;;;;;;5.30;100.00;96872.75;5052160;28;20072;-88
2022/03/17 05:23:27;;;;;;;37.83;27.43;;;;;;;5.31;100.00;96866.59;5036523;28;20173;-88
2022/03/17 05:25:52;;;;;;;38.83;28.87;;;;;;;5.29;100.00;96870.25;5052319;28;20040;-88
2022/03/17 05:28:35;;;;;;;39.20;28.13;;;;;;;5.27;100.00;96867.75;5030761;28;20040;-88
2022/03/17 05:31:02;;;;;;;38.28;27.90;;;;;;;5.26;100.00;96866.06;5065239;28;20147;-88
2022/03/17 05:33:29;;;;;;;43.37;29.37;;;;;;;5.28;100.00;96865.97;5054273;28;20108;-88
2022/03/17 05:35:55;;;;;;;38.33;28.73;;;;;;;5.27;100.00;96870.38;5037362;28;20055;-88
2022/03/17 05:38:21;;;;;;;39.97;28.83;;;;;;;5.23;100.00;96868.06;5060731;28;20040;-87
2022/03/17 05:40:48;;;;;;;37.33;28.10;;;;;;;5.24;100.00;96870.59;5035217;28;20147;-87
2022/03/17 05:43:17;;;;;;;43.20;29.30;;;;;;;5.16;100.00;96873.75;5049684;28;20502;-88
2022/03/17 05:45:43;;;;;;;42.57;29.30;;;;;;;5.15;100.00;96876.44;5069869;28;20029;-89
2022/03/17 05:48:09;;;;;;;41.07;30.50;;;;;;;5.14;100.00;96867.81;5033270;28;20089;-88
2022/03/17 05:50:45;;;;;;;45.90;32.80;;;;;;;5.15;100.00;96879.06;5035081;28;20047;-88
2022/03/17 05:53:10;;;;;;;50.17;34.53;;;;;;;5.11;100.00;96886.28;5033366;28;20041;-87
2022/03/17 05:55:37;;;;;;;46.17;33.57;;;;;;;5.13;100.00;96880.94;5043444;28;20125;-89
2022/03/17 05:58:05;;;;;;;43.10;30.80;;;;;;;5.09;100.00;96882.94;5049571;28;20047;-88
2022/03/17 06:00:40;;;;;;;43.77;31.57;;;;;;;5.17;100.00;96890.22;5057591;28;20250;-88
2022/03/17 06:03:06;;;;;;;59.13;37.30;;;;;;;5.06;100.00;96882.31;5027111;28;20032;-88
2022/03/17 06:05:32;;;;;;;54.10;36.57;;;;;;;5.07;100.00;96884.00;5066943;28;20491;-88
2022/03/17 06:08:00;;;;;;;42.40;31.77;;;;;;;5.05;100.00;96880.66;5030245;28;20037;-88
2022/03/17 06:10:34;;;;;;;42.57;31.50;;;;;;;5.10;100.00;96884.63;5062481;28;20052;-89
2022/03/17 06:13:02;;;;;;;45.50;32.33;;;;;;;5.11;100.00;96885.44;5054008;28;20032;-88
2022/03/17 06:15:31;;;;;;;45.20;32.77;;;;;;;5.11;100.00;96901.09;5053572;28;20081;-84
2022/03/17 06:17:59;;;;;;;41.10;31.53;;;;;;;5.08;100.00;96896.91;5035995;28;20029;-83
2022/03/17 06:20:27;;;;;;;42.70;30.60;;;;;;;5.15;100.00;96902.53;5059952;28;20028;-85
2022/03/17 06:22:59;;;;;;;42.27;30.83;;;;;;;5.14;100.00;96906.91;5031834;28;20727;-85
2022/03/17 06:25:26;;;;;;;43.63;30.77;;;;;;;5.15;100.00;96912.97;5040346;28;20037;-85
2022/03/17 06:27:52;;;;;;;43.00;30.10;;;;;;;5.19;100.00;96907.41;5048470;28;20032;-85
2022/03/17 06:30:23;;;;;;;45.70;31.73;;;;;;;5.24;100.00;96912.31;5052061;28;20036;-85
2022/03/17 06:32:50;;;;;;;44.43;31.47;;;;;;;5.28;100.00;96913.75;5055186;28;20046;-84
2022/03/17 06:35:23;;;;;;;44.67;31.83;;;;;;;5.28;100.00;96913.75;5030237;28;20028;-85
2022/03/17 06:37:52;;;;;;;40.50;30.07;;;;;;;5.22;100.00;96918.56;5037692;28;20071;-85
2022/03/17 06:40:18;;;;;;;43.03;32.13;;;;;;;5.20;100.00;96910.88;5024109;28;20040;-84
2022/03/17 06:42:45;;;;;;;42.87;32.33;;;;;;;5.17;100.00;96911.91;5035036;28;20410;-84
2022/03/17 06:45:24;;;;;;;45.67;32.47;;;;;;;5.29;100.00;96912.78;5041871;28;20021;-85
2022/03/17 06:47:50;;;;;;;43.50;31.70;;;;;;;5.27;100.00;96924.31;5035487;28;20182;-86
2022/03/17 06:50:17;;;;;;;42.90;31.90;;;;;;;5.22;100.00;96921.19;5068646;28;20112;-84
2022/03/17 06:52:43;;;;;;;46.37;32.03;;;;;;;5.31;100.00;96923.97;5048755;28;20044;-85
2022/03/17 06:55:09;;;;;;;41.23;30.53;;;;;;;5.38;100.00;96913.94;5027443;28;20534;-85
2022/03/17 06:57:35;;;;;;;41.90;30.90;;;;;;;5.39;100.00;96919.00;5047247;28;20083;-85
2022/03/17 07:00:10;;;;;;;41.03;32.07;;;;;;;5.39;100.00;96921.63;5046148;28;20556;-85
2022/03/17 07:02:40;;;;;;;42.90;29.87;;;;;;;5.39;100.00;96924.22;5057071;28;20032;-84
2022/03/17 07:05:06;;;;;;;44.10;33.07;;;;;;;5.42;100.00;96925.78;5047415;28;20028;-84
2022/03/17 07:07:33;;;;;;;42.73;31.50;;;;;;;5.40;100.00;96925.91;5067336;28;20033;-85
2022/03/17 07:09:59;;;;;;;44.37;31.33;;;;;;;5.40;100.00;96931.13;5032364;28;20041;-85
2022/03/17 07:12:26;;;;;;;42.97;31.27;;;;;;;5.47;100.00;96928.91;5027408;28;20028;-85
2022/03/17 07:14:53;;;;;;;41.30;30.50;;;;;;;5.60;100.00;96932.31;5053367;28;20109;-85
2022/03/17 07:17:21;;;;;;;43.70;30.83;;;;;;;5.65;100.00;96942.41;5047419;28;20104;-85
2022/03/17 07:22:27;;;;;;;41.07;30.07;;;;;;;5.66;100.00;96942.28;5061767;28;20528;-85
2022/03/17 07:24:55;;;;;;;45.97;31.73;;;;;;;5.55;100.00;96954.44;5074022;28;20031;-85
2022/03/17 07:27:21;;;;;;;42.23;30.10;;;;;;;5.61;100.00;96951.41;5048381;28;20033;-84
2022/03/17 07:30:19;;;;;;;43.23;31.20;;;;;;;5.54;100.00;96947.56;5033917;28;20036;-85
2022/03/17 07:32:58;;;;;;;45.93;31.13;;;;;;;5.57;100.00;96949.97;5041407;28;20120;-84
2022/03/17 07:35:25;;;;;;;45.30;31.60;;;;;;;5.60;100.00;96958.41;5052400;28;20044;-85
2022/03/17 07:37:52;;;;;;;46.60;30.67;;;;;;;5.62;100.00;96958.28;5064741;28;20119;-85
2022/03/17 07:40:19;;;;;;;47.97;30.37;;;;;;;5.73;100.00;96963.53;5072202;28;20064;-85
2022/03/17 07:42:45;;;;;;;45.50;32.87;;;;;;;5.69;100.00;96962.09;5034822;28;20032;-85
2022/03/17 07:45:17;;;;;;;46.80;31.47;;;;;;;5.75;100.00;96953.84;5045962;28;20037;-85
2022/03/17 07:48:05;;;;;;;46.03;31.80;;;;;;;5.74;100.00;96960.00;5072468;28;20044;-85
2022/03/17 07:50:34;;;;;;;44.17;31.87;;;;;;;5.64;100.00;96957.22;5043694;28;20425;-86
2022/03/17 07:53:00;;;;;;;42.70;31.00;;;;;;;5.82;100.00;96964.66;5053360;28;20082;-85
2022/03/17 07:55:27;;;;;;;44.87;30.70;;;;;;;5.94;100.00;96973.44;5045585;28;20020;-85
2022/03/17 07:57:53;;;;;;;44.07;32.27;;;;;;;5.89;100.00;96976.31;5053141;28;20037;-85
2022/03/17 08:00:22;;;;;;;45.47;31.07;;;;;;;5.84;100.00;96973.22;5044405;28;20029;-84
2022/03/17 08:02:47;;;;;;;41.60;30.00;;;;;;;5.98;100.00;96986.13;5054425;28;20039;-84
2022/03/17 08:05:14;;;;;;;42.33;31.13;;;;;;;6.07;100.00;96987.22;5035195;28;20033;-85
2022/03/17 08:07:52;;;;;;;41.13;30.47;;;;;;;6.03;100.00;96983.16;5041496;28;20056;-85
2022/03/17 08:10:18;;;;;;;43.47;31.20;;;;;;;5.90;100.00;96984.06;5071997;28;20366;-85
2022/03/17 08:12:44;;;;;;;44.07;32.03;;;;;;;6.06;100.00;96977.72;5055257;28;20043;-84
2022/03/17 08:15:10;;;;;;;44.80;31.17;;;;;;;5.87;100.00;96989.50;5033779;28;20107;-84
2022/03/17 08:17:36;;;;;;;43.67;30.67;;;;;;;5.96;100.00;96997.63;5064604;28;20530;-85
2022/03/17 08:20:29;;;;;;;41.47;29.60;;;;;;;6.12;100.00;97001.59;5030382;28;20620;-85
2022/03/17 08:23:08;;;;;;;44.67;31.38;;;;;;;6.21;100.00;97012.34;5033137;28;20083;-84
2022/03/17 08:25:35;;;;;;;46.60;32.37;;;;;;;6.14;100.00;97011.97;5014369;28;20510;-84
2022/03/17 08:28:02;;;;;;;42.47;30.97;;;;;;;6.26;100.00;97013.66;5033289;28;20399;-85
2022/03/17 08:30:32;;;;;;;40.73;28.00;;;;;;;6.31;100.00;97022.00;5011802;28;20048;-85
2022/03/17 08:33:06;;;;;;;42.10;30.73;;;;;;;6.11;100.00;97013.00;5014231;28;20103;-85
2022/03/17 08:35:32;;;;;;;47.67;30.97;;;;;;;6.25;100.00;97013.78;5020754;28;20104;-85
2022/03/17 08:37:58;;;;;;;40.00;30.13;;;;;;;6.43;100.00;97022.84;5050693;28;20045;-85
2022/03/17 08:40:24;;;;;;;43.20;31.00;;;;;;;6.54;99.23;97025.50;5012614;28;20430;-85
2022/03/17 08:42:49;;;;;;;42.33;30.40;;;;;;;6.60;98.61;97030.25;5019615;28;20603;-85
2022/03/17 08:50:46;;;;;;;44.00;29.47;;;;;;;6.61;98.51;97042.41;5028588;28;20110;-85
2022/03/17 08:53:12;;;;;;;43.63;29.93;;;;;;;6.78;97.43;97045.53;5016968;28;20041;-85
2022/03/17 08:55:39;;;;;;;42.10;31.13;;;;;;;6.89;97.12;97044.72;5016363;28;20035;-85
2022/03/17 08:58:06;;;;;;;39.83;28.47;;;;;;;7.04;94.42;97038.28;5010393;28;20036;-84
2022/03/17 09:00:34;;;;;;;36.83;27.47;;;;;;;7.06;93.12;97044.25;5056401;28;20017;-85
2022/03/17 09:03:07;;;;;;;37.43;27.57;;;;;;;7.03;91.94;97041.88;5013975;28;20039;-85
2022/03/17 09:05:35;;;;;;;32.67;25.20;;;;;;;7.23;92.99;97049.00;5025947;28;20440;-85
2022/03/17 09:08:04;;;;;;;36.13;26.57;;;;;;;7.25;92.60;97052.34;5029813;28;20156;-85
2022/03/17 09:10:31;;;;;;;38.07;27.70;;;;;;;7.14;92.17;97049.72;5021559;28;20037;-84
2022/03/17 09:12:57;;;;;;;37.23;26.33;;;;;;;7.21;92.06;97056.16;5016454;28;20068;-85
2022/03/17 09:15:30;;;;;;;34.60;26.33;;;;;;;7.30;92.07;97050.19;5002479;28;20029;-84
2022/03/17 09:17:56;;;;;;;27.70;20.70;;;;;;;7.33;91.47;97064.84;5038440;28;20033;-84
2022/03/17 09:20:22;;;;;;;37.60;27.53;;;;;;;7.38;92.58;97060.09;5015600;28;20048;-85
2022/03/17 09:22:49;;;;;;;36.70;27.43;;;;;;;7.22;93.22;97054.38;5016262;28;20407;-84
2022/03/17 09:25:15;;;;;;;38.40;28.17;;;;;;;7.21;93.30;97050.06;5025164;28;20062;-84
2022/03/17 09:27:42;;;;;;;35.93;26.73;;;;;;;7.41;92.30;97061.63;4997757;28;20033;-84
2022/03/17 09:30:08;;;;;;;34.77;26.83;;;;;;;7.40;90.77;97062.56;5012098;28;20029;-86
2022/03/17 09:32:34;;;;;;;38.00;25.67;;;;;;;7.55;90.58;97059.59;5006182;28;20743;-84
2022/03/17 09:35:00;;;;;;;36.20;27.83;;;;;;;7.43;91.54;97064.94;5019107;28;20028;-85
2022/03/17 09:37:26;;;;;;;34.77;26.67;;;;;;;7.48;91.39;97065.44;5031467;28;20039;-85
2022/03/17 09:39:52;;;;;;;32.77;25.63;;;;;;;7.55;91.83;97064.00;5048126;28;20651;-84
2022/03/17 09:42:19;;;;;;;39.43;27.70;;;;;;;7.50;91.53;97066.13;5011941;28;20132;-85
2022/03/17 09:44:51;;;;;;;36.63;28.87;;;;;;;7.35;92.23;97060.31;5013125;28;20067;-85
2022/03/17 09:47:18;;;;;;;37.47;28.43;;;;;;;7.28;93.67;97057.34;5010224;28;20132;-84
2022/03/17 09:49:46;;;;;;;38.67;28.23;;;;;;;7.38;92.25;97062.72;5010039;28;20029;-85
2022/03/17 09:52:14;;;;;;;34.10;26.87;;;;;;;7.37;93.48;97055.78;5026607;28;20049;-84
2022/03/17 09:54:44;;;;;;;35.07;27.53;;;;;;;7.24;93.41;97055.06;5017032;28;20068;-85
2022/03/17 09:57:10;;;;;;;38.47;27.37;;;;;;;7.36;93.49;97063.78;5030557;28;20044;-84
2022/03/17 09:59:35;;;;;;;38.10;28.03;;;;;;;7.35;93.01;97062.13;5031490;28;20025;-84
2022/03/17 10:02:12;;;;;;;36.13;26.97;;;;;;;7.54;92.12;97078.88;5018153;28;20029;-85
2022/03/17 10:04:39;;;;;;;34.90;26.67;;;;;;;7.63;90.71;97076.50;5021695;28;20079;-85
2022/03/17 10:07:07;;;;;;;38.67;28.27;;;;;;;7.70;89.90;97075.88;5010573;28;20101;-85
2022/03/17 10:09:33;;;;;;;38.63;29.20;;;;;;;7.42;90.84;97079.81;5030680;28;20090;-84
2022/03/17 10:12:09;;;;;;;35.93;28.07;;;;;;;7.46;90.35;97070.78;5030699;28;20036;-84
2022/03/17 10:14:43;;;;;;;37.23;28.47;;;;;;;7.62;90.59;97077.44;5018192;28;20137;-84
2022/03/17 10:17:33;;;;;;;36.17;27.17;;;;;;;7.38;91.74;97080.16;5024549;28;20487;-84
2022/03/17 10:20:13;;;;;;;37.63;29.30;;;;;;;7.51;91.76;97080.88;5023879;28;20045;-84
2022/03/17 10:22:47;;;;;;;36.07;26.33;;;;;;;7.66;90.66;97073.63;5047327;28;20029;-85
2022/03/17 10:25:20;;;;;;;40.23;28.70;;;;;;;7.50;91.01;97076.59;5021602;28;20511;-84
2022/03/17 10:27:49;;;;;;;38.00;28.10;;;;;;;7.74;90.16;97079.09;5031313;28;20045;-84
2022/03/17 10:30:35;;;;;;;38.67;28.33;;;;;;;7.45;91.37;97081.38;5020879;28;20051;-84
2022/03/17 10:33:09;;;;;;;34.83;28.07;;;;;;;7.48;91.51;97083.75;5042150;28;20400;-84
2022/03/17 10:35:36;;;;;;;39.53;28.77;;;;;;;7.57;90.35;97078.63;5005454;28;20033;-84
2022/03/17 10:38:16;;;;;;;41.00;29.27;;;;;;;7.89;90.01;97083.13;5012632;28;20130;-84
2022/03/17 10:40:43;;;;;;;36.80;28.43;;;;;;;8.02;88.40;97080.38;5025100;28;20037;-85
2022/03/17 10:43:16;;;;;;;39.20;28.43;;;;;;;8.23;87.38;97076.00;5029958;28;20041;-85
2022/03/17 10:45:42;;;;;;;38.80;28.05;;;;;;;8.30;88.08;97078.97;5031503;28;20494;-84
2022/03/17 10:48:08;;;;;;;38.53;28.77;;;;;;;8.36;87.26;97081.09;5027952;28;20103;-84
2022/03/17 10:50:45;;;;;;;36.10;27.07;;;;;;;8.09;89.36;97073.69;5028465;28;20095;-85
2022/03/17 10:53:11;;;;;;;39.27;28.83;;;;;;;7.94;89.59;97080.13;5011395;28;20118;-84
2022/03/17 10:55:38;;;;;;;38.00;28.63;;;;;;;8.11;87.39;97089.25;5019934;28;20052;-85
2022/03/17 10:58:19;;;;;;;37.00;27.73;;;;;;;8.35;87.76;97081.22;5015634;28;20034;-84
2022/03/17 11:00:52;;;;;;;37.90;29.60;;;;;;;8.44;87.85;97090.97;5008706;28;20692;-84
2022/03/17 11:03:20;;;;;;;40.67;28.90;;;;;;;8.35;86.79;97095.16;5024930;28;20089;-84
2022/03/17 11:06:06;;;;;;;42.17;29.33;;;;;;;8.59;88.05;97089.75;5039593;28;20131;-84
2022/03/17 11:08:33;;;;;;;37.23;28.73;;;;;;;8.78;88.89;97098.69;5016430;28;20033;-84
2022/03/17 11:10:59;;;;;;;38.70;30.03;;;;;;;8.79;88.33;97095.13;5031285;28;20037;-84
2022/03/17 11:13:33;;;;;;;41.53;29.90;;;;;;;8.73;89.21;97092.06;5017832;28;20032;-84
2022/03/17 11:16:05;;;;;;;38.50;28.97;;;;;;;8.86;87.44;97096.28;5053422;28;20098;-84
2022/03/17 11:18:36;;;;;;;39.42;30.05;;;;;;;8.98;86.28;97103.13;5044873;28;20166;-85
2022/03/17 11:21:28;;;;;;;40.20;29.13;;;;;;;8.83;87.02;97093.91;5034078;28;20033;-84
2022/03/17 11:24:05;;;;;;;40.17;30.57;;;;;;;9.17;86.06;97105.88;5026194;28;20028;-84
2022/03/17 11:26:44;;;;;;;33.40;27.23;;;;;;;9.23;84.00;97112.41;5044101;28;20039;-84
2022/03/17 11:29:21;;;;;;;38.50;29.10;;;;;;;9.35;84.93;97105.28;5047784;28;20028;-84
2022/03/17 11:31:53;;;;;;;39.10;27.73;;;;;;;9.29;84.09;97109.28;5036872;28;20040;-84
2022/03/17 11:34:39;;;;;;;27.27;21.07;;;;;;;9.56;81.94;97113.97;5050998;28;20040;-85
2022/03/17 11:37:20;;;;;;;39.50;27.90;;;;;;;9.47;81.92;97103.41;5036565;28;20451;-84
2022/03/17 11:40:06;;;;;;;40.87;28.07;;;;;;;8.94;84.80;97112.22;5050654;28;20040;-84
2022/03/17 11:42:47;;;;;;;36.33;27.60;;;;;;;9.32;83.33;97108.16;5038215;28;20047;-84
2022/03/17 11:45:13;;;;;;;36.00;28.83;;;;;;;9.49;82.27;97097.09;5055547;28;20563;-84
2022/03/17 11:47:48;;;;;;;42.07;29.80;;;;;;;9.24;83.36;97108.81;5041465;28;20047;-84
2022/03/17 11:50:38;;;;;;;49.27;35.00;;;;;;;9.40;82.84;97109.19;5046508;28;20896;-84
2022/03/17 11:53:13;;;;;;;38.27;30.67;;;;;;;9.37;83.62;97114.69;5051703;28;20036;-84
2022/03/17 11:55:42;;;;;;;36.77;27.43;;;;;;;9.59;81.70;97113.72;5028992;28;20427;-83